sensor_id;sensor_type;location;lat;lon;timestamp;pressure;altitude;pressure_sealevel;temperature;humidity
80712;BME280;70078;51.596;5.678;2023-06-22T00:01:54;101725.34;;;19.67;62.44
80712;BME280;70078;51.596;5.678;2023-06-22T00:04:19;101733.72;;;19.73;62.34
80712;BME280;70078;51.596;5.678;2023-06-22T00:06:45;101713.06;;;19.65;62.67
80712;BME280;70078;51.596;5.678;2023-06-22T00:09:10;101753.53;;;20.00;62.37
80712;BME280;70078;51.596;5.678;2023-06-22T00:11:36;101739.59;;;19.96;62.10
80712;BME280;70078;51.596;5.678;2023-06-22T00:14:02;101767.94;;;20.00;62.62
80712;BME280;70078;51.596;5.678;2023-06-22T00:16:28;101714.50;;;19.61;62.45
80712;BME280;70078;51.596;5.678;2023-06-22T00:18:53;101746.84;;;19.76;63.40
80712;BME280;70078;51.596;5.678;2023-06-22T00:21:18;101757.47;;;19.77;63.73
80712;BME280;70078;51.596;5.678;2023-06-22T00:23:45;101750.81;;;19.73;63.60
80712;BME280;70078;51.596;5.678;2023-06-22T00:26:10;101777.72;;;19.88;63.59
80712;BME280;70078;51.596;5.678;2023-06-22T00:28:36;101749.50;;;19.62;64.26
80712;BME280;70078;51.596;5.678;2023-06-22T00:31:02;101755.13;;;19.61;64.30
80712;BME280;70078;51.596;5.678;2023-06-22T00:33:27;101737.13;;;19.47;64.71
80712;BME280;70078;51.596;5.678;2023-06-22T00:35:53;101738.59;;;19.49;64.41
80712;BME280;70078;51.596;5.678;2023-06-22T00:38:19;101778.53;;;19.75;64.92
80712;BME280;70078;51.596;5.678;2023-06-22T00:40:44;101752.41;;;19.61;64.63
80712;BME280;70078;51.596;5.678;2023-06-22T00:43:10;101764.72;;;19.70;64.63
80712;BME280;70078;51.596;5.678;2023-06-22T00:45:35;101775.19;;;19.73;64.80
80712;BME280;70078;51.596;5.678;2023-06-22T00:48:01;101770.16;;;19.70;64.64
80712;BME280;70078;51.596;5.678;2023-06-22T00:50:29;101716.69;;;19.37;65.57
80712;BME280;70078;51.596;5.678;2023-06-22T00:53:00;101763.91;;;19.70;65.56
80712;BME280;70078;51.596;5.678;2023-06-22T00:55:26;101726.69;;;19.37;65.56
80712;BME280;70078;51.596;5.678;2023-06-22T00:57:52;101728.59;;;19.43;65.45
80712;BME280;70078;51.596;5.678;2023-06-22T01:00:23;101765.53;;;19.64;65.93
80712;BME280;70078;51.596;5.678;2023-06-22T01:02:51;101759.94;;;19.59;65.87
80712;BME280;70078;51.596;5.678;2023-06-22T01:05:19;101754.25;;;19.54;66.08
80712;BME280;70078;51.596;5.678;2023-06-22T01:13:01;101742.50;;;19.40;66.66
80712;BME280;70078;51.596;5.678;2023-06-22T01:15:33;101718.94;;;19.34;66.71
80712;BME280;70078;51.596;5.678;2023-06-22T01:18:04;101706.22;;;19.21;66.67
80712;BME280;70078;51.596;5.678;2023-06-22T01:20:31;101753.38;;;19.47;67.21
80712;BME280;70078;51.596;5.678;2023-06-22T01:23:27;101752.13;;;19.43;67.17
80712;BME280;70078;51.596;5.678;2023-06-22T01:26:05;101738.75;;;19.34;67.15
80712;BME280;70078;51.596;5.678;2023-06-22T01:28:42;101755.66;;;19.43;67.12
80712;BME280;70078;51.596;5.678;2023-06-22T01:31:09;101696.13;;;19.02;67.39
80712;BME280;70078;51.596;5.678;2023-06-22T01:33:38;101742.91;;;19.30;67.58
80712;BME280;70078;51.596;5.678;2023-06-22T01:36:06;101754.16;;;19.34;67.90
80712;BME280;70078;51.596;5.678;2023-06-22T01:38:32;101745.16;;;19.27;67.59
80712;BME280;70078;51.596;5.678;2023-06-22T01:40:59;101744.16;;;19.28;67.58
80712;BME280;70078;51.596;5.678;2023-06-22T01:43:27;101718.69;;;19.16;68.03
80712;BME280;70078;51.596;5.678;2023-06-22T01:45:54;101726.00;;;19.22;67.77
80712;BME280;70078;51.596;5.678;2023-06-22T01:48:21;101716.63;;;19.24;67.82
80712;BME280;70078;51.596;5.678;2023-06-22T01:50:47;101731.66;;;19.33;68.39
80712;BME280;70078;51.596;5.678;2023-06-22T01:53:12;101708.13;;;19.27;68.34
80712;BME280;70078;51.596;5.678;2023-06-22T01:55:38;101732.06;;;19.30;68.27
80712;BME280;70078;51.596;5.678;2023-06-22T01:58:03;101726.84;;;19.22;68.05
80712;BME280;70078;51.596;5.678;2023-06-22T02:00:31;101717.06;;;19.21;68.36
80712;BME280;70078;51.596;5.678;2023-06-22T02:03:07;101709.53;;;19.17;68.10
80712;BME280;70078;51.596;5.678;2023-06-22T02:05:37;101723.50;;;19.20;67.96
80712;BME280;70078;51.596;5.678;2023-06-22T02:08:09;101743.31;;;19.27;68.12
80712;BME280;70078;51.596;5.678;2023-06-22T02:10:37;101745.81;;;19.29;67.91
80712;BME280;70078;51.596;5.678;2023-06-22T02:13:06;101747.69;;;19.28;68.35
80712;BME280;70078;51.596;5.678;2023-06-22T02:15:32;101739.34;;;19.23;68.47
80712;BME280;70078;51.596;5.678;2023-06-22T02:17:58;101738.75;;;19.28;68.14
80712;BME280;70078;51.596;5.678;2023-06-22T02:20:24;101715.16;;;19.15;68.28
80712;BME280;70078;51.596;5.678;2023-06-22T02:22:50;101728.25;;;19.18;68.39
80712;BME280;70078;51.596;5.678;2023-06-22T02:25:15;101692.59;;;19.01;68.79
80712;BME280;70078;51.596;5.678;2023-06-22T02:27:40;101702.81;;;19.06;68.74
80712;BME280;70078;51.596;5.678;2023-06-22T02:30:09;101729.53;;;19.22;68.35
80712;BME280;70078;51.596;5.678;2023-06-22T02:32:35;101712.81;;;19.05;68.40
80712;BME280;70078;51.596;5.678;2023-06-22T02:35:01;101712.59;;;19.07;68.97
80712;BME280;70078;51.596;5.678;2023-06-22T02:37:30;101690.28;;;18.98;68.37
80712;BME280;70078;51.596;5.678;2023-06-22T02:39:55;101716.81;;;19.16;68.26
80712;BME280;70078;51.596;5.678;2023-06-22T02:42:21;101677.81;;;18.97;68.48
80712;BME280;70078;51.596;5.678;2023-06-22T02:44:47;101697.38;;;18.99;68.80
80712;BME280;70078;51.596;5.678;2023-06-22T02:47:12;101716.56;;;19.11;69.08
80712;BME280;70078;51.596;5.678;2023-06-22T02:49:38;101713.00;;;19.04;69.47
80712;BME280;70078;51.596;5.678;2023-06-22T02:52:03;101712.78;;;18.99;68.96
80712;BME280;70078;51.596;5.678;2023-06-22T02:54:29;101679.38;;;18.78;69.46
80712;BME280;70078;51.596;5.678;2023-06-22T02:56:54;101682.38;;;18.97;69.41
80712;BME280;70078;51.596;5.678;2023-06-22T02:59:19;101709.28;;;19.05;69.00
80712;BME280;70078;51.596;5.678;2023-06-22T03:01:49;101700.91;;;19.00;68.90
80712;BME280;70078;51.596;5.678;2023-06-22T03:04:15;101674.19;;;18.83;68.57
80712;BME280;70078;51.596;5.678;2023-06-22T03:06:46;101707.81;;;19.09;68.77
80712;BME280;70078;51.596;5.678;2023-06-22T03:09:16;101690.25;;;18.92;69.13
80712;BME280;70078;51.596;5.678;2023-06-22T03:11:42;101698.84;;;19.02;69.36
80712;BME280;70078;51.596;5.678;2023-06-22T03:14:08;101684.22;;;18.90;69.38
80712;BME280;70078;51.596;5.678;2023-06-22T03:16:33;101671.53;;;18.90;69.46
80712;BME280;70078;51.596;5.678;2023-06-22T03:18:59;101654.78;;;18.73;69.38
80712;BME280;70078;51.596;5.678;2023-06-22T03:21:28;101685.69;;;18.92;69.38
80712;BME280;70078;51.596;5.678;2023-06-22T03:23:54;101691.06;;;18.85;69.32
80712;BME280;70078;51.596;5.678;2023-06-22T03:26:19;101697.53;;;18.91;69.34
80712;BME280;70078;51.596;5.678;2023-06-22T03:28:45;101660.59;;;18.70;69.14
80712;BME280;70078;51.596;5.678;2023-06-22T03:31:10;101691.88;;;18.86;68.91
80712;BME280;70078;51.596;5.678;2023-06-22T03:33:36;101687.72;;;18.83;69.13
80712;BME280;70078;51.596;5.678;2023-06-22T03:36:02;101678.94;;;18.75;69.42
80712;BME280;70078;51.596;5.678;2023-06-22T03:38:27;101690.59;;;18.75;69.09
80712;BME280;70078;51.596;5.678;2023-06-22T03:40:52;101683.31;;;18.76;69.72
80712;BME280;70078;51.596;5.678;2023-06-22T03:43:18;101658.44;;;18.59;69.78
80712;BME280;70078;51.596;5.678;2023-06-22T03:45:43;101650.66;;;18.49;69.97
80712;BME280;70078;51.596;5.678;2023-06-22T03:48:11;101675.53;;;18.66;69.71
80712;BME280;70078;51.596;5.678;2023-06-22T03:50:36;101685.56;;;18.72;70.05
80712;BME280;70078;51.596;5.678;2023-06-22T03:53:01;101654.88;;;18.58;70.32
80712;BME280;70078;51.596;5.678;2023-06-22T03:55:27;101671.09;;;18.58;71.09
80712;BME280;70078;51.596;5.678;2023-06-22T03:57:53;101641.81;;;18.34;71.01
80712;BME280;70078;51.596;5.678;2023-06-22T04:00:22;101680.44;;;18.56;70.90
80712;BME280;70078;51.596;5.678;2023-06-22T04:02:47;101667.91;;;18.48;70.91
80712;BME280;70078;51.596;5.678;2023-06-22T04:05:12;101673.78;;;18.52;72.01
80712;BME280;70078;51.596;5.678;2023-06-22T04:07:38;101654.97;;;18.37;72.06
80712;BME280;70078;51.596;5.678;2023-06-22T04:10:04;101664.19;;;18.49;71.59
80712;BME280;70078;51.596;5.678;2023-06-22T04:12:30;101645.00;;;18.38;71.31
80712;BME280;70078;51.596;5.678;2023-06-22T04:14:55;101657.94;;;18.49;71.33
80712;BME280;70078;51.596;5.678;2023-06-22T04:17:20;101634.16;;;18.38;71.39
80712;BME280;70078;51.596;5.678;2023-06-22T04:19:46;101652.28;;;18.44;71.38
80712;BME280;70078;51.596;5.678;2023-06-22T04:22:11;101634.16;;;18.38;71.75
80712;BME280;70078;51.596;5.678;2023-06-22T04:24:37;101647.53;;;18.46;71.37
80712;BME280;70078;51.596;5.678;2023-06-22T04:27:02;101661.53;;;18.56;71.58
80712;BME280;70078;51.596;5.678;2023-06-22T04:29:29;101638.38;;;18.47;71.87
80712;BME280;70078;51.596;5.678;2023-06-22T04:31:56;101663.84;;;18.59;71.85
80712;BME280;70078;51.596;5.678;2023-06-22T04:34:24;101668.38;;;18.58;72.15
80712;BME280;70078;51.596;5.678;2023-06-22T04:36:51;101649.44;;;18.52;71.98
80712;BME280;70078;51.596;5.678;2023-06-22T04:39:17;101641.09;;;18.47;71.63
80712;BME280;70078;51.596;5.678;2023-06-22T04:41:44;101661.84;;;18.68;71.50
80712;BME280;70078;51.596;5.678;2023-06-22T04:44:17;101656.84;;;18.71;71.49
80712;BME280;70078;51.596;5.678;2023-06-22T04:46:52;101660.19;;;18.67;71.95
80712;BME280;70078;51.596;5.678;2023-06-22T04:49:25;101661.44;;;18.71;72.13
80712;BME280;70078;51.596;5.678;2023-06-22T04:52:07;101616.34;;;18.50;71.49
80712;BME280;70078;51.596;5.678;2023-06-22T04:54:34;101652.53;;;18.77;71.58
80712;BME280;70078;51.596;5.678;2023-06-22T04:57:07;101666.31;;;18.95;71.60
80712;BME280;70078;51.596;5.678;2023-06-22T04:59:37;101633.16;;;18.80;71.50
80712;BME280;70078;51.596;5.678;2023-06-22T05:02:05;101647.81;;;18.92;71.75
80712;BME280;70078;51.596;5.678;2023-06-22T05:04:31;101659.91;;;19.03;71.41
80712;BME280;70078;51.596;5.678;2023-06-22T05:06:58;101645.50;;;18.96;71.17
80712;BME280;70078;51.596;5.678;2023-06-22T05:09:23;101670.38;;;19.19;71.29
80712;BME280;70078;51.596;5.678;2023-06-22T05:11:50;101660.41;;;19.26;71.49
80712;BME280;70078;51.596;5.678;2023-06-22T05:14:16;101632.72;;;19.24;71.08
80712;BME280;70078;51.596;5.678;2023-06-22T05:16:42;101634.59;;;19.30;71.25
80712;BME280;70078;51.596;5.678;2023-06-22T05:19:07;101662.81;;;19.62;70.88
80712;BME280;70078;51.596;5.678;2023-06-22T05:21:35;101630.06;;;19.51;70.66
80712;BME280;70078;51.596;5.678;2023-06-22T05:24:01;101629.09;;;19.65;70.22
80712;BME280;70078;51.596;5.678;2023-06-22T05:26:32;101663.88;;;20.01;69.48
80712;BME280;70078;51.596;5.678;2023-06-22T05:28:58;101665.97;;;20.06;69.87
80712;BME280;70078;51.596;5.678;2023-06-22T05:31:24;101618.44;;;19.97;69.13
80712;BME280;70078;51.596;5.678;2023-06-22T05:33:51;101644.28;;;20.19;69.38
80712;BME280;70078;51.596;5.678;2023-06-22T05:36:17;101657.19;;;20.30;69.21
80712;BME280;70078;51.596;5.678;2023-06-22T05:38:45;101657.81;;;20.32;69.51
80712;BME280;70078;51.596;5.678;2023-06-22T05:41:10;101653.84;;;20.41;69.16
80712;BME280;70078;51.596;5.678;2023-06-22T05:43:35;101681.19;;;20.53;69.34
80712;BME280;70078;51.596;5.678;2023-06-22T05:46:02;101673.03;;;20.66;69.18
80712;BME280;70078;51.596;5.678;2023-06-22T05:48:27;101674.03;;;20.78;68.71
80712;BME280;70078;51.596;5.678;2023-06-22T05:50:53;101636.72;;;20.61;68.85
80712;BME280;70078;51.596;5.678;2023-06-22T05:53:19;101665.84;;;20.85;68.22
80712;BME280;70078;51.596;5.678;2023-06-22T05:55:44;101657.91;;;20.90;68.45
80712;BME280;70078;51.596;5.678;2023-06-22T05:58:10;101641.63;;;20.90;68.20
80712;BME280;70078;51.596;5.678;2023-06-22T06:00:35;101658.72;;;20.97;68.07
80712;BME280;70078;51.596;5.678;2023-06-22T06:03:01;101647.06;;;20.90;67.89
80712;BME280;70078;51.596;5.678;2023-06-22T06:05:31;101645.38;;;20.96;67.70
80712;BME280;70078;51.596;5.678;2023-06-22T06:07:56;101666.38;;;21.14;67.83
80712;BME280;70078;51.596;5.678;2023-06-22T06:10:22;101604.28;;;20.86;67.50
80712;BME280;70078;51.596;5.678;2023-06-22T06:12:47;101658.59;;;21.24;67.97
80712;BME280;70078;51.596;5.678;2023-06-22T06:15:13;101644.66;;;21.14;67.33
80712;BME280;70078;51.596;5.678;2023-06-22T06:17:48;101643.78;;;21.20;67.61
80712;BME280;70078;51.596;5.678;2023-06-22T06:20:15;101662.31;;;21.36;67.72
80712;BME280;70078;51.596;5.678;2023-06-22T06:22:40;101616.00;;;21.24;67.02
80712;BME280;70078;51.596;5.678;2023-06-22T06:25:08;101631.00;;;21.27;67.65
80712;BME280;70078;51.596;5.678;2023-06-22T06:27:33;101625.16;;;21.30;67.94
80712;BME280;70078;51.596;5.678;2023-06-22T06:29:58;101632.22;;;21.38;68.43
80712;BME280;70078;51.596;5.678;2023-06-22T06:32:24;101621.16;;;21.39;67.67
80712;BME280;70078;51.596;5.678;2023-06-22T06:34:49;101608.44;;;21.26;67.97
80712;BME280;70078;51.596;5.678;2023-06-22T06:37:15;101611.97;;;21.33;67.66
80712;BME280;70078;51.596;5.678;2023-06-22T06:39:40;101636.66;;;21.64;67.03
80712;BME280;70078;51.596;5.678;2023-06-22T06:42:06;101663.28;;;21.80;67.37
80712;BME280;70078;51.596;5.678;2023-06-22T06:44:31;101607.88;;;21.56;66.62
80712;BME280;70078;51.596;5.678;2023-06-22T06:46:57;101644.75;;;21.95;66.44
80712;BME280;70078;51.596;5.678;2023-06-22T06:49:22;101612.00;;;21.83;66.42
80712;BME280;70078;51.596;5.678;2023-06-22T06:51:47;101628.63;;;22.00;66.72
80712;BME280;70078;51.596;5.678;2023-06-22T06:54:13;101615.75;;;21.89;65.77
80712;BME280;70078;51.596;5.678;2023-06-22T06:56:38;101617.06;;;21.80;65.37
80712;BME280;70078;51.596;5.678;2023-06-22T06:59:04;101641.44;;;21.93;65.45
80712;BME280;70078;51.596;5.678;2023-06-22T07:01:29;101634.88;;;22.01;65.13
80712;BME280;70078;51.596;5.678;2023-06-22T07:03:59;101629.69;;;21.99;64.67
80712;BME280;70078;51.596;5.678;2023-06-22T07:06:24;101642.22;;;22.00;65.15
80712;BME280;70078;51.596;5.678;2023-06-22T07:08:54;101610.53;;;21.87;64.89
80712;BME280;70078;51.596;5.678;2023-06-22T07:11:20;101586.56;;;21.78;64.81
80712;BME280;70078;51.596;5.678;2023-06-22T07:13:45;101574.66;;;21.79;64.96
80712;BME280;70078;51.596;5.678;2023-06-22T07:16:10;101596.59;;;22.02;65.05
80712;BME280;70078;51.596;5.678;2023-06-22T07:18:36;101638.97;;;22.35;64.23
80712;BME280;70078;51.596;5.678;2023-06-22T07:21:01;101606.03;;;22.25;63.43
80712;BME280;70078;51.596;5.678;2023-06-22T07:23:28;101641.72;;;22.53;63.37
80712;BME280;70078;51.596;5.678;2023-06-22T07:25:53;101628.03;;;22.41;63.81
80712;BME280;70078;51.596;5.678;2023-06-22T07:28:22;101598.94;;;22.24;63.35
80712;BME280;70078;51.596;5.678;2023-06-22T07:30:47;101631.69;;;22.54;63.56
80712;BME280;70078;51.596;5.678;2023-06-22T07:33:12;101631.69;;;22.54;63.26
80712;BME280;70078;51.596;5.678;2023-06-22T07:35:38;101593.03;;;22.27;63.98
80712;BME280;70078;51.596;5.678;2023-06-22T07:38:03;101610.28;;;22.39;63.62
80712;BME280;70078;51.596;5.678;2023-06-22T07:40:28;101634.09;;;22.62;62.74
80712;BME280;70078;51.596;5.678;2023-06-22T07:42:54;101519.22;;;21.98;62.71
80712;BME280;70078;51.596;5.678;2023-06-22T07:45:19;101629.72;;;22.61;63.06
80712;BME280;70078;51.596;5.678;2023-06-22T07:47:45;101584.88;;;22.45;62.04
80712;BME280;70078;51.596;5.678;2023-06-22T07:50:10;101587.97;;;22.49;62.26
80712;BME280;70078;51.596;5.678;2023-06-22T07:52:36;101588.81;;;22.67;61.89
80712;BME280;70078;51.596;5.678;2023-06-22T07:55:01;101612.00;;;22.88;61.40
80712;BME280;70078;51.596;5.678;2023-06-22T07:57:27;101561.72;;;22.73;61.50
80712;BME280;70078;51.596;5.678;2023-06-22T07:59:59;101564.75;;;22.83;61.88
80712;BME280;70078;51.596;5.678;2023-06-22T08:02:25;101573.16;;;23.11;61.88
80712;BME280;70078;51.596;5.678;2023-06-22T08:04:50;101579.88;;;23.39;61.09
80712;BME280;70078;51.596;5.678;2023-06-22T08:07:16;101560.66;;;23.34;60.01
80712;BME280;70078;51.596;5.678;2023-06-22T08:09:46;101467.09;;;22.86;59.14
80712;BME280;70078;51.596;5.678;2023-06-22T08:12:13;101547.66;;;23.36;59.40
80712;BME280;70078;51.596;5.678;2023-06-22T08:14:39;101528.78;;;23.22;59.35
80712;BME280;70078;51.596;5.678;2023-06-22T08:17:04;101560.31;;;23.42;59.50
80712;BME280;70078;51.596;5.678;2023-06-22T08:19:30;101522.84;;;23.25;59.40
80712;BME280;70078;51.596;5.678;2023-06-22T08:21:56;101524.41;;;23.33;59.23
80712;BME280;70078;51.596;5.678;2023-06-22T08:24:22;101532.25;;;23.53;58.16
80712;BME280;70078;51.596;5.678;2023-06-22T08:26:51;101514.00;;;23.42;58.53
80712;BME280;70078;51.596;5.678;2023-06-22T08:29:16;101556.63;;;23.66;58.59
80712;BME280;70078;51.596;5.678;2023-06-22T08:31:41;101549.72;;;23.64;58.81
80712;BME280;70078;51.596;5.678;2023-06-22T08:34:07;101515.44;;;23.56;58.47
80712;BME280;70078;51.596;5.678;2023-06-22T08:36:32;101509.75;;;23.46;59.26
80712;BME280;70078;51.596;5.678;2023-06-22T08:39:03;101536.09;;;23.87;59.25
80712;BME280;70078;51.596;5.678;2023-06-22T08:41:29;101525.66;;;23.84;58.86
80712;BME280;70078;51.596;5.678;2023-06-22T08:43:54;101516.88;;;23.94;58.37
80712;BME280;70078;51.596;5.678;2023-06-22T08:46:20;101498.25;;;24.02;57.25
80712;BME280;70078;51.596;5.678;2023-06-22T08:48:48;101542.00;;;24.19;57.74
80712;BME280;70078;51.596;5.678;2023-06-22T08:51:14;101544.00;;;24.24;57.43
80712;BME280;70078;51.596;5.678;2023-06-22T08:53:39;101511.16;;;24.07;57.42
80712;BME280;70078;51.596;5.678;2023-06-22T08:56:05;101533.69;;;24.26;57.02
80712;BME280;70078;51.596;5.678;2023-06-22T08:58:30;101510.69;;;24.10;57.71
80712;BME280;70078;51.596;5.678;2023-06-22T09:00:55;101506.75;;;24.18;57.73
80712;BME280;70078;51.596;5.678;2023-06-22T09:03:21;101518.84;;;24.22;56.86
80712;BME280;70078;51.596;5.678;2023-06-22T09:05:46;101489.59;;;23.94;57.20
80712;BME280;70078;51.596;5.678;2023-06-22T09:08:11;101480.97;;;23.97;56.35
80712;BME280;70078;51.596;5.678;2023-06-22T09:10:37;101485.22;;;23.93;56.75
80712;BME280;70078;51.596;5.678;2023-06-22T09:13:02;101522.34;;;24.05;56.77
80712;BME280;70078;51.596;5.678;2023-06-22T09:15:27;101499.44;;;23.95;56.41
80712;BME280;70078;51.596;5.678;2023-06-22T09:17:53;101537.97;;;24.22;56.04
80712;BME280;70078;51.596;5.678;2023-06-22T09:20:19;101504.69;;;23.96;56.61
80712;BME280;70078;51.596;5.678;2023-06-22T09:22:45;101532.50;;;24.10;57.07
80712;BME280;70078;51.596;5.678;2023-06-22T09:25:10;101517.66;;;24.18;56.11
80712;BME280;70078;51.596;5.678;2023-06-22T09:27:36;101467.00;;;23.82;56.66
80712;BME280;70078;51.596;5.678;2023-06-22T09:30:01;101501.22;;;24.01;57.09
80712;BME280;70078;51.596;5.678;2023-06-22T09:32:28;101526.22;;;24.21;55.77
80712;BME280;70078;51.596;5.678;2023-06-22T09:34:53;101523.84;;;24.13;56.62
80712;BME280;70078;51.596;5.678;2023-06-22T09:37:19;101445.78;;;23.60;56.61
80712;BME280;70078;51.596;5.678;2023-06-22T09:39:44;101493.06;;;23.89;57.76
80712;BME280;70078;51.596;5.678;2023-06-22T09:42:09;101482.03;;;23.72;56.96
80712;BME280;70078;51.596;5.678;2023-06-22T09:44:35;101515.72;;;23.90;56.75
80712;BME280;70078;51.596;5.678;2023-06-22T09:47:00;101482.03;;;23.72;57.49
80712;BME280;70078;51.596;5.678;2023-06-22T09:49:26;101518.69;;;23.88;57.70
80712;BME280;70078;51.596;5.678;2023-06-22T09:51:51;101515.22;;;23.93;57.45
80712;BME280;70078;51.596;5.678;2023-06-22T09:54:17;101486.44;;;23.73;57.41
80712;BME280;70078;51.596;5.678;2023-06-22T09:56:43;101483.09;;;23.83;56.94
80712;BME280;70078;51.596;5.678;2023-06-22T09:59:08;101463.78;;;23.61;57.52
80712;BME280;70078;51.596;5.678;2023-06-22T10:01:33;101489.88;;;23.80;57.12
80712;BME280;70078;51.596;5.678;2023-06-22T10:03:59;101511.31;;;23.89;57.34
80712;BME280;70078;51.596;5.678;2023-06-22T10:06:24;101493.19;;;23.83;57.68
80712;BME280;70078;51.596;5.678;2023-06-22T10:08:51;101499.22;;;23.85;57.74
80712;BME280;70078;51.596;5.678;2023-06-22T10:11:16;101469.22;;;23.85;56.70
80712;BME280;70078;51.596;5.678;2023-06-22T10:13:42;101514.75;;;23.96;57.28
80712;BME280;70078;51.596;5.678;2023-06-22T10:16:07;101489.59;;;24.05;56.92
80712;BME280;70078;51.596;5.678;2023-06-22T10:18:33;101467.91;;;23.87;56.78
80712;BME280;70078;51.596;5.678;2023-06-22T10:20:58;101462.00;;;23.78;57.10
80712;BME280;70078;51.596;5.678;2023-06-22T10:23:23;101484.50;;;23.97;57.25
80712;BME280;70078;51.596;5.678;2023-06-22T10:25:49;101484.50;;;23.97;56.96
80712;BME280;70078;51.596;5.678;2023-06-22T10:28:14;101452.97;;;23.90;57.13
80712;BME280;70078;51.596;5.678;2023-06-22T10:30:41;101423.13;;;23.71;57.07
80712;BME280;70078;51.596;5.678;2023-06-22T10:33:07;101440.31;;;23.84;56.44
80712;BME280;70078;51.596;5.678;2023-06-22T10:35:33;101472.41;;;24.05;56.34
80712;BME280;70078;51.596;5.678;2023-06-22T10:37:58;101472.91;;;23.90;57.01
80712;BME280;70078;51.596;5.678;2023-06-22T10:40:24;101486.63;;;23.95;56.61
80712;BME280;70078;51.596;5.678;2023-06-22T10:42:49;101478.69;;;23.94;57.25
80712;BME280;70078;51.596;5.678;2023-06-22T10:45:15;101489.84;;;24.04;57.28
80712;BME280;70078;51.596;5.678;2023-06-22T10:47:41;101460.47;;;23.71;58.23
80712;BME280;70078;51.596;5.678;2023-06-22T10:50:07;101442.31;;;23.65;57.77
80712;BME280;70078;51.596;5.678;2023-06-22T10:52:33;101431.53;;;23.58;58.40
80712;BME280;70078;51.596;5.678;2023-06-22T10:54:58;101464.13;;;23.76;58.09
80712;BME280;70078;51.596;5.678;2023-06-22T10:57:23;101489.03;;;23.92;57.69
80712;BME280;70078;51.596;5.678;2023-06-22T10:59:49;101464.00;;;23.71;57.54
80712;BME280;70078;51.596;5.678;2023-06-22T11:02:14;101472.44;;;23.58;57.91
80712;BME280;70078;51.596;5.678;2023-06-22T11:04:40;101510.97;;;23.85;57.92
80712;BME280;70078;51.596;5.678;2023-06-22T11:07:05;101533.00;;;24.07;57.62
80712;BME280;70078;51.596;5.678;2023-06-22T11:09:31;101500.78;;;23.80;58.79
80712;BME280;70078;51.596;5.678;2023-06-22T11:11:56;101542.50;;;24.04;59.55
80712;BME280;70078;51.596;5.678;2023-06-22T11:14:36;101552.59;;;24.04;60.78
80712;BME280;70078;51.596;5.678;2023-06-22T11:17:01;101536.56;;;23.84;61.94
80712;BME280;70078;51.596;5.678;2023-06-22T11:19:27;101521.06;;;23.73;62.86
80712;BME280;70078;51.596;5.678;2023-06-22T11:21:52;101542.38;;;23.64;63.43
80712;BME280;70078;51.596;5.678;2023-06-22T11:24:17;101525.72;;;23.42;64.53
80712;BME280;70078;51.596;5.678;2023-06-22T11:26:43;101529.38;;;23.24;65.47
80712;BME280;70078;51.596;5.678;2023-06-22T11:29:09;101578.06;;;23.33;66.85
80712;BME280;70078;51.596;5.678;2023-06-22T11:31:35;101573.63;;;23.08;67.68
80712;BME280;70078;51.596;5.678;2023-06-22T11:34:00;101573.47;;;23.03;68.17
80712;BME280;70078;51.596;5.678;2023-06-22T11:36:26;101546.44;;;22.71;68.72
80712;BME280;70078;51.596;5.678;2023-06-22T11:38:51;101564.75;;;22.83;68.91
80712;BME280;70078;51.596;5.678;2023-06-22T11:41:17;101556.59;;;22.64;69.58
80712;BME280;70078;51.596;5.678;2023-06-22T11:43:42;101559.63;;;22.56;70.05
80712;BME280;70078;51.596;5.678;2023-06-22T11:46:08;101532.00;;;22.23;71.31
80712;BME280;70078;51.596;5.678;2023-06-22T11:48:33;101520.56;;;22.14;70.52
80712;BME280;70078;51.596;5.678;2023-06-22T11:50:59;101552.22;;;22.27;71.00
80712;BME280;70078;51.596;5.678;2023-06-22T11:53:26;101519.81;;;21.82;72.80
80712;BME280;70078;51.596;5.678;2023-06-22T11:55:51;101518.75;;;21.65;73.99
80712;BME280;70078;51.596;5.678;2023-06-22T11:58:19;101520.84;;;21.63;74.13
80712;BME280;70078;51.596;5.678;2023-06-22T12:00:44;101501.19;;;21.60;74.32
80712;BME280;70078;51.596;5.678;2023-06-22T12:03:10;101486.34;;;21.38;75.35
80712;BME280;70078;51.596;5.678;2023-06-22T12:05:36;101466.78;;;21.29;76.24
80712;BME280;70078;51.596;5.678;2023-06-22T12:08:01;101439.75;;;21.16;76.80
80712;BME280;70078;51.596;5.678;2023-06-22T12:10:27;101462.19;;;21.30;77.44
80712;BME280;70078;51.596;5.678;2023-06-22T12:12:54;101480.03;;;21.44;76.97
80712;BME280;70078;51.596;5.678;2023-06-22T12:15:19;101476.72;;;21.42;77.05
80712;BME280;70078;51.596;5.678;2023-06-22T12:17:44;101475.94;;;21.35;78.13
80712;BME280;70078;51.596;5.678;2023-06-22T12:20:10;101442.06;;;21.13;78.27
80712;BME280;70078;51.596;5.678;2023-06-22T12:22:35;101447.16;;;21.02;78.58
80712;BME280;70078;51.596;5.678;2023-06-22T12:25:03;101430.22;;;21.00;78.76
80712;BME280;70078;51.596;5.678;2023-06-22T12:27:28;101413.81;;;20.95;78.58
80712;BME280;70078;51.596;5.678;2023-06-22T12:29:55;101444.72;;;21.19;78.68
80712;BME280;70078;51.596;5.678;2023-06-22T12:32:21;101411.22;;;21.00;78.45
80712;BME280;70078;51.596;5.678;2023-06-22T12:34:46;101397.16;;;20.85;78.24
80712;BME280;70078;51.596;5.678;2023-06-22T12:37:11;101395.34;;;20.79;78.45
80712;BME280;70078;51.596;5.678;2023-06-22T12:39:37;101440.22;;;21.06;78.10
80712;BME280;70078;51.596;5.678;2023-06-22T12:42:02;101397.16;;;20.85;77.40
80712;BME280;70078;51.596;5.678;2023-06-22T12:44:28;101417.41;;;20.89;78.31
80712;BME280;70078;51.596;5.678;2023-06-22T12:46:53;101416.66;;;20.75;79.06
80712;BME280;70078;51.596;5.678;2023-06-22T12:49:19;101444.25;;;20.97;78.38
80712;BME280;70078;51.596;5.678;2023-06-22T12:51:45;101424.97;;;20.81;78.53